createdAt,value
2023-04-03T00:03:00.632Z,95452.09
2023-04-03T00:06:12.124Z,95449.88
2023-04-03T00:09:20.499Z,95452.38
2023-04-03T00:12:28.629Z,95454.03
2023-04-03T00:15:38.370Z,95452.63
2023-04-03T00:18:46.496Z,95448.38
2023-04-03T00:21:55.943Z,95452.63
2023-04-03T00:25:04.077Z,95452.34
2023-04-03T00:28:12.892Z,95454.31
2023-04-03T00:31:21.433Z,95459.69
2023-04-03T00:34:29.564Z,95461.22
2023-04-03T00:37:39.280Z,95456.94
2023-04-03T00:40:50.321Z,95462.69
2023-04-03T00:43:58.481Z,95467.69
2023-04-03T00:47:10.969Z,95456.78
2023-04-03T00:50:20.010Z,95458.44
2023-04-03T00:53:35.670Z,95459.13
2023-04-03T00:56:45.595Z,95458.16
2023-04-03T01:00:02.325Z,95454.16
2023-04-03T01:03:10.869Z,95448.59
2023-04-03T01:06:28.146Z,95451.66
2023-04-03T01:09:39.950Z,95450.13
2023-04-03T01:12:51.331Z,95445.97
2023-04-03T01:16:03.132Z,95455.00
2023-04-03T01:19:18.782Z,95455.13
2023-04-03T01:22:36.245Z,95461.75
2023-04-03T01:25:49.706Z,95459.53
2023-04-03T01:29:01.120Z,95462.84
2023-04-03T01:32:10.974Z,95457.97
2023-04-03T01:35:19.502Z,95468.66
2023-04-03T01:38:28.271Z,95457.47
2023-04-03T01:41:36.740Z,95461.22
2023-04-03T01:44:53.000Z,95465.66
2023-04-03T01:48:03.351Z,95469.38
2023-04-03T01:51:11.611Z,95462.84
2023-04-03T01:54:19.892Z,95463.44
2023-04-03T01:57:29.454Z,95469.50
2023-04-03T02:00:38.163Z,95464.78
2023-04-03T02:03:48.131Z,95462.75
2023-04-03T02:06:56.516Z,95460.94
2023-04-03T02:10:05.217Z,95470.06
2023-04-03T02:13:13.571Z,95456.09
2023-04-03T02:16:21.952Z,95456.25
2023-04-03T02:19:34.262Z,95458.03
2023-04-03T02:22:43.405Z,95457.06
2023-04-03T02:25:51.801Z,95460.81
2023-04-03T02:29:00.025Z,95455.81
2023-04-03T02:32:08.181Z,95468.41
2023-04-03T02:35:18.932Z,95459.41
2023-04-03T02:38:28.418Z,95459.00
2023-04-03T02:41:36.843Z,95451.97
2023-04-03T02:44:50.262Z,95453.06
2023-04-03T02:48:00.374Z,95466.47
2023-04-03T02:51:11.186Z,95462.19
2023-04-03T02:54:19.931Z,95457.63
2023-04-03T02:57:33.001Z,95464.53
2023-04-03T03:00:41.699Z,95468.13
2023-04-03T03:03:49.935Z,95461.91
2023-04-03T03:06:59.546Z,95468.13
2023-04-03T03:10:08.851Z,95464.41
2023-04-03T03:13:17.083Z,95465.94
2023-04-03T03:16:25.714Z,95470.06
2023-04-03T03:19:33.996Z,95467.06
2023-04-03T03:22:43.798Z,95457.38
2023-04-03T03:25:57.362Z,95462.75
2023-04-03T03:29:05.721Z,95472.56
2023-04-03T03:32:14.837Z,95467.56
2023-04-03T03:35:23.134Z,95468.72
2023-04-03T03:38:32.828Z,95461.50
2023-04-03T03:41:42.820Z,95458.44
2023-04-03T03:44:52.850Z,95457.75
2023-04-03T03:48:03.400Z,95467.84
2023-04-03T03:51:12.424Z,95459.13
2023-04-03T03:54:22.515Z,95457.06
2023-04-03T03:57:31.539Z,95456.50
2023-04-03T04:00:40.884Z,95463.84
2023-04-03T04:03:49.931Z,95462.03
2023-04-03T04:07:02.484Z,95468.53
2023-04-03T04:10:14.755Z,95455.41
2023-04-03T04:13:24.187Z,95450.69
2023-04-03T04:16:33.010Z,95465.91
2023-04-03T04:19:47.021Z,95464.53
2023-04-03T04:22:56.751Z,95462.34
2023-04-03T04:26:07.909Z,95462.59
2023-04-03T04:29:19.269Z,95465.34
2023-04-03T04:32:31.099Z,95467.97
2023-04-03T04:35:39.768Z,95467.03
2023-04-03T04:38:48.817Z,95466.47
2023-04-03T04:41:59.162Z,95464.25
2023-04-03T04:45:10.360Z,95467.00
2023-04-03T04:48:20.716Z,95466.47
2023-04-03T04:51:35.056Z,95473.66
2023-04-03T04:54:47.106Z,95470.06
2023-04-03T04:57:57.140Z,95475.47
2023-04-03T05:01:08.837Z,95470.34
2023-04-03T05:04:21.252Z,95478.78
2023-04-03T05:07:33.669Z,95480.44
2023-04-03T05:10:43.620Z,95477.13
2023-04-03T05:13:55.758Z,95485.56
2023-04-03T05:17:06.164Z,95486.94
2023-04-03T05:20:18.571Z,95483.63
2023-04-03T05:23:28.289Z,95488.59
2023-04-03T05:26:39.413Z,95488.31
2023-04-03T05:29:50.065Z,95496.31
2023-04-03T05:33:02.844Z,95495.22
2023-04-03T05:36:22.583Z,95488.88
2023-04-03T05:39:37.149Z,95494.00
2023-04-03T05:42:48.183Z,95491.53
2023-04-03T05:45:59.730Z,95492.75
2023-04-03T05:49:10.438Z,95490.53
2023-04-03T05:52:25.529Z,95489.28
2023-04-03T05:55:34.007Z,95496.06
2023-04-03T05:58:42.447Z,95494.44
2023-04-03T06:01:52.220Z,95498.84
2023-04-03T06:05:02.938Z,95499.81
2023-04-03T06:08:11.258Z,95499.41
2023-04-03T06:11:19.756Z,95497.44
2023-04-03T06:14:29.062Z,95507.69
2023-04-03T06:17:39.312Z,95510.88
2023-04-03T06:20:48.364Z,95508.53
2023-04-03T06:23:56.787Z,95504.22
2023-04-03T06:27:05.535Z,95515.16
2023-04-03T06:30:14.667Z,95512.38
2023-04-03T06:33:24.433Z,95505.91
2023-04-03T06:36:33.108Z,95510.03
2023-04-03T06:39:41.619Z,95514.34
2023-04-03T06:42:49.855Z,95516.84
2023-04-03T06:46:00.261Z,95510.75
2023-04-03T06:49:11.393Z,95516.00
2023-04-03T06:52:19.822Z,95522.19
2023-04-03T06:55:28.759Z,95519.56
2023-04-03T06:58:37.165Z,95525.38
2023-04-03T07:01:45.587Z,95521.22
2023-04-03T07:04:56.102Z,95525.97
2023-04-03T07:08:04.512Z,95535.22
2023-04-03T07:11:14.359Z,95532.25
2023-04-03T07:14:22.581Z,95535.53
2023-04-03T07:17:30.899Z,95538.75
2023-04-03T07:20:41.367Z,95543.81
2023-04-03T07:23:53.337Z,95539.00
2023-04-03T07:27:02.379Z,95542.69
2023-04-03T07:30:12.023Z,95544.66
2023-04-03T07:33:24.219Z,95542.97
2023-04-03T07:36:34.589Z,95555.69
2023-04-03T07:39:46.609Z,95554.22
2023-04-03T07:42:55.969Z,95556.13
2023-04-03T07:46:07.112Z,95554.91
2023-04-03T07:49:16.076Z,95567.81
2023-04-03T07:52:26.280Z,95565.59
2023-04-03T07:55:35.245Z,95572.91
2023-04-03T07:58:43.837Z,95564.84
2023-04-03T08:01:52.431Z,95577.91
2023-04-03T08:05:01.728Z,95575.75
2023-04-03T08:08:12.982Z,95568.22
2023-04-03T08:11:21.886Z,95572.31
2023-04-03T08:14:32.694Z,95572.56
2023-04-03T08:17:41.211Z,95564.03
2023-04-03T08:20:49.539Z,95572.66
2023-04-03T08:23:59.351Z,95580.22
2023-04-03T08:27:07.651Z,95577.94
2023-04-03T08:30:16.602Z,95575.50
2023-04-03T08:33:25.081Z,95573.47
2023-04-03T08:36:33.376Z,95577.94
2023-04-03T08:39:43.038Z,95575.97
2023-04-03T08:43:08.187Z,95578.75
2023-04-03T08:46:21.361Z,95577.47
2023-04-03T08:49:37.907Z,95580.97
2023-04-03T08:52:51.786Z,95586.94
2023-04-03T08:56:07.249Z,95587.25
2023-04-03T08:59:26.395Z,95596.50
2023-04-03T09:02:43.293Z,95584.00
2023-04-03T09:05:57.843Z,95580.53
2023-04-03T09:09:17.635Z,95590.81
2023-04-03T09:12:36.289Z,95594.09
2023-04-03T09:15:46.898Z,95589.34
2023-04-03T09:19:10.457Z,95587.97
2023-04-03T09:22:24.255Z,95590.25
2023-04-03T09:25:42.574Z,95589.00
2023-04-03T09:28:52.971Z,95582.47
2023-04-03T09:32:03.981Z,95584.53
2023-04-03T09:35:32.709Z,95593.81
2023-04-03T09:39:04.158Z,95578.25
2023-04-03T09:42:23.433Z,95577.47
2023-04-03T09:45:36.078Z,95573.06
2023-04-03T09:49:05.061Z,95577.88
2023-04-03T09:52:27.725Z,95575.69
2023-04-03T09:55:46.033Z,95572.97
2023-04-03T09:59:16.055Z,95584.00
2023-04-03T10:02:38.363Z,95577.53
2023-04-03T10:05:46.589Z,95580.41
2023-04-03T10:09:05.441Z,95578.13
2023-04-03T10:12:22.016Z,95579.09
2023-04-03T10:15:33.748Z,95568.44
2023-04-03T10:18:51.510Z,95580.13
2023-04-03T10:22:05.731Z,95579.25
2023-04-03T10:25:24.457Z,95570.06
2023-04-03T10:28:43.248Z,95571.84
2023-04-03T10:32:04.646Z,95577.13
2023-04-03T10:35:26.681Z,95574.13
2023-04-03T10:38:50.370Z,95566.31
2023-04-03T10:42:17.355Z,95567.63
2023-04-03T10:45:34.001Z,95567.19
2023-04-03T10:49:01.687Z,95572.75
2023-04-03T10:52:19.935Z,95566.97
2023-04-03T10:55:40.145Z,95573.97
2023-04-03T10:58:57.097Z,95570.41
2023-04-03T11:02:17.670Z,95568.88
2023-04-03T11:05:36.826Z,95575.94
2023-04-03T11:08:56.185Z,95571.56
2023-04-03T11:12:13.266Z,95566.81
2023-04-03T11:15:26.250Z,95576.47
2023-04-03T11:18:50.870Z,95576.72
2023-04-03T11:22:11.558Z,95588.16
2023-04-03T11:25:26.342Z,95582.94
2023-04-03T11:28:34.806Z,95580.69
2023-04-03T11:32:07.994Z,95574.50
2023-04-03T11:35:21.267Z,95573.50
2023-04-03T11:38:37.299Z,95575.91
2023-04-03T11:41:47.379Z,95571.97
2023-04-03T11:45:32.331Z,95570.22
2023-04-03T11:48:58.631Z,95572.31
2023-04-03T11:52:13.302Z,95573.44
2023-04-03T11:56:09.697Z,95570.28
2023-04-03T11:59:29.697Z,95571.09
2023-04-03T12:05:52.526Z,95570.59
2023-04-03T12:09:01.102Z,95565.06
2023-04-03T12:12:38.863Z,95559.19
2023-04-03T12:15:54.725Z,95560.84
2023-04-03T12:19:06.457Z,95557.22
2023-04-03T12:22:21.590Z,95564.28
2023-04-03T12:25:53.707Z,95554.41
2023-04-03T12:29:17.101Z,95560.84
2023-04-03T12:33:09.483Z,95557.84
2023-04-03T12:36:32.653Z,95558.19
2023-04-03T12:39:57.594Z,95554.41
2023-04-03T12:43:49.531Z,95552.94
2023-04-03T12:47:10.427Z,95561.03
2023-04-03T12:50:31.102Z,95548.03
2023-04-03T12:53:40.654Z,95541.09
2023-04-03T12:56:48.885Z,95545.25
2023-04-03T12:59:57.561Z,95537.63
2023-04-03T13:03:08.355Z,95539.84
2023-04-03T13:06:23.832Z,95536.59
2023-04-03T13:09:33.724Z,95539.78
2023-04-03T13:12:50.915Z,95526.94
2023-04-03T13:16:01.744Z,95523.28
2023-04-03T13:19:20.057Z,95523.63
2023-04-03T13:22:40.268Z,95519.81
2023-04-03T13:25:51.901Z,95520.47
2023-04-03T13:29:05.435Z,95512.88
2023-04-03T13:32:23.809Z,95511.50
2023-04-03T13:35:38.666Z,95509.81
2023-04-03T13:38:59.783Z,95511.03
2023-04-03T13:42:24.467Z,95508.97
2023-04-03T13:45:34.350Z,95502.69
2023-04-03T13:48:47.758Z,95500.78
2023-04-03T13:52:07.230Z,95494.06
2023-04-03T13:55:28.839Z,95496.72
2023-04-03T13:58:41.404Z,95492.13
2023-04-03T14:01:56.244Z,95490.19
2023-04-03T14:05:09.279Z,95491.03
2023-04-03T14:08:19.375Z,95484.84
2023-04-03T14:11:35.770Z,95487.56
2023-04-03T14:14:45.658Z,95491.06
2023-04-03T14:17:54.839Z,95485.78
2023-04-03T14:21:03.303Z,95489.94
2023-04-03T14:24:12.446Z,95482.84
2023-04-03T14:27:25.337Z,95488.22
2023-04-03T14:30:36.610Z,95484.47
2023-04-03T14:33:45.622Z,95490.00
2023-04-03T14:36:55.131Z,95488.94
2023-04-03T14:40:06.327Z,95486.69
2023-04-03T14:43:17.386Z,95485.00
2023-04-03T14:46:42.955Z,95479.03
2023-04-03T14:49:57.284Z,95482.31
2023-04-03T14:53:05.733Z,95479.81
2023-04-03T14:56:17.910Z,95480.56
2023-04-03T14:59:29.043Z,95476.44
2023-04-03T15:02:40.118Z,95481.47
2023-04-03T15:05:51.376Z,95478.03
2023-04-03T15:08:59.621Z,95485.59
2023-04-03T15:12:10.910Z,95477.78
2023-04-03T15:15:22.903Z,95481.59
2023-04-03T15:18:39.983Z,95483.56
2023-04-03T15:21:48.383Z,95479.69
2023-04-03T15:24:56.758Z,95485.34
2023-04-03T15:28:05.574Z,95482.88
2023-04-03T15:31:15.549Z,95480.94
2023-04-03T15:34:23.966Z,95476.84
2023-04-03T15:37:32.363Z,95471.59
2023-04-03T15:40:41.197Z,95477.06
2023-04-03T15:43:49.541Z,95469.75
2023-04-03T15:47:00.918Z,95476.69
2023-04-03T15:50:10.317Z,95479.22
2023-04-03T15:53:18.796Z,95471.41
2023-04-03T15:56:27.191Z,95479.22
2023-04-03T15:59:35.520Z,95475.22
2023-04-03T16:02:47.317Z,95476.16
2023-04-03T16:05:56.446Z,95473.34
2023-04-03T16:09:05.768Z,95478.81
2023-04-03T16:12:14.039Z,95480.84
2023-04-03T16:15:22.304Z,95479.59
2023-04-03T16:18:36.182Z,95484.69
2023-04-03T16:21:45.047Z,95489.00
2023-04-03T16:24:53.649Z,95480.94
2023-04-03T16:28:02.010Z,95493.53
2023-04-03T16:31:10.677Z,95494.72
2023-04-03T16:34:21.014Z,95497.00
2023-04-03T16:37:31.062Z,95490.22
2023-04-03T16:40:41.141Z,95493.81
2023-04-03T16:43:50.985Z,95501.03
2023-04-03T16:46:59.912Z,95506.44
2023-04-03T16:50:11.691Z,95502.75
2023-04-03T16:53:20.375Z,95506.84
2023-04-03T16:56:28.806Z,95513.22
2023-04-03T16:59:40.307Z,95511.19
2023-04-03T17:02:48.823Z,95499.56
2023-04-03T17:05:59.404Z,95507.22
2023-04-03T17:09:08.665Z,95519.59
2023-04-03T17:12:18.226Z,95516.19
2023-04-03T17:15:27.797Z,95520.38
2023-04-03T17:18:38.175Z,95521.53
2023-04-03T17:21:48.299Z,95524.38
2023-04-03T17:24:57.693Z,95532.72
2023-04-03T17:28:06.607Z,95537.47
2023-04-03T17:31:17.917Z,95530.84
2023-04-03T17:34:26.662Z,95535.97
2023-04-03T17:37:36.601Z,95535.84
2023-04-03T17:40:45.595Z,95540.59
2023-04-03T17:43:56.451Z,95545.28
2023-04-03T17:47:04.828Z,95535.91
2023-04-03T17:50:16.167Z,95540.34
2023-04-03T17:53:27.582Z,95542.53
2023-04-03T17:56:37.140Z,95549.47
2023-04-03T17:59:45.720Z,95547.28
2023-04-03T18:02:55.728Z,95546.69
2023-04-03T18:06:04.984Z,95547.00
2023-04-03T18:09:19.626Z,95549.19
2023-04-03T18:12:28.149Z,95546.19
2023-04-03T18:15:38.466Z,95548.66
2023-04-03T18:18:47.599Z,95552.53
2023-04-03T18:22:02.497Z,95561.38
2023-04-03T18:25:14.201Z,95554.50
2023-04-03T18:28:23.479Z,95567.63
2023-04-03T18:31:36.387Z,95566.94
2023-04-03T18:34:44.805Z,95570.94
2023-04-03T18:37:53.378Z,95569.28
2023-04-03T18:41:07.604Z,95574.13
2023-04-03T18:44:22.143Z,95571.63
2023-04-03T18:47:31.006Z,95572.88
2023-04-03T18:50:39.643Z,95590.16
2023-04-03T18:53:48.096Z,95590.97
2023-04-03T18:56:57.900Z,95590.81
2023-04-03T19:00:08.596Z,95595.66
2023-04-03T19:03:17.262Z,95586.78
2023-04-03T19:06:25.515Z,95589.00
2023-04-03T19:09:34.815Z,95594.50
2023-04-03T19:12:46.567Z,95595.34
2023-04-03T19:15:58.702Z,95592.66
2023-04-03T19:19:07.890Z,95605.75
2023-04-03T19:22:16.318Z,95595.34
2023-04-03T19:25:25.242Z,95598.50
2023-04-03T19:28:36.589Z,95604.28
2023-04-03T19:31:44.888Z,95608.38
2023-04-03T19:34:54.431Z,95617.03
2023-04-03T19:38:02.860Z,95612.16
2023-04-03T19:41:15.990Z,95608.97
2023-04-03T19:44:26.004Z,95613.19
2023-04-03T19:47:36.336Z,95619.66
2023-04-03T19:50:44.715Z,95616.72
2023-04-03T19:53:54.235Z,95612.75
2023-04-03T19:57:02.769Z,95612.75
2023-04-03T20:00:14.868Z,95617.00
2023-04-03T20:03:23.035Z,95620.75
2023-04-03T20:06:32.104Z,95619.16
2023-04-03T20:09:40.418Z,95615.09
2023-04-03T20:12:50.423Z,95615.38
2023-04-03T20:16:04.663Z,95619.91
2023-04-03T20:19:13.549Z,95615.06
2023-04-03T20:22:21.893Z,95618.53
2023-04-03T20:25:48.154Z,95609.25
2023-04-03T20:29:02.717Z,95612.44
2023-04-03T20:32:14.962Z,95619.28
2023-04-03T20:35:23.355Z,95607.25
2023-04-03T20:38:31.844Z,95613.19
2023-04-03T20:41:40.338Z,95610.97
2023-04-03T20:44:49.958Z,95607.41
2023-04-03T20:48:01.654Z,95605.81
2023-04-03T20:51:12.688Z,95606.66
2023-04-03T20:54:23.365Z,95610.81
2023-04-03T20:57:31.845Z,95615.44
2023-04-03T21:00:42.716Z,95609.84
2023-04-03T21:04:02.482Z,95611.75
2023-04-03T21:08:07.149Z,95606.91
2023-04-03T21:12:12.019Z,95607.59
2023-04-03T21:15:49.131Z,95610.00
2023-04-03T21:19:22.451Z,95599.53
2023-04-03T21:22:30.730Z,95602.63
2023-04-03T21:25:38.969Z,95604.03
2023-04-03T21:28:47.426Z,95605.94
2023-04-03T21:31:58.057Z,95605.13
2023-04-03T21:35:09.510Z,95609.28
2023-04-03T21:38:18.024Z,95605.59
2023-04-03T21:41:26.571Z,95609.03
2023-04-03T21:44:35.047Z,95610.47
2023-04-03T21:47:44.886Z,95603.44
2023-04-03T21:50:54.578Z,95603.34
2023-04-03T21:54:02.968Z,95600.34
2023-04-03T21:57:11.865Z,95596.66
2023-04-03T22:00:23.053Z,95598.56
2023-04-03T22:03:34.777Z,95596.66
2023-04-03T22:06:45.817Z,95595.81
2023-04-03T22:09:54.061Z,95588.66
2023-04-03T22:13:02.381Z,95589.75
2023-04-03T22:16:12.697Z,95588.91
2023-04-03T22:19:21.253Z,95586.19
2023-04-03T22:22:31.145Z,95590.69
2023-04-03T22:25:39.380Z,95585.47
2023-04-03T22:28:48.784Z,95589.50
2023-04-03T22:31:57.163Z,95585.59
2023-04-03T22:35:06.376Z,95586.66
2023-04-03T22:38:16.685Z,95580.00
2023-04-03T22:41:25.285Z,95587.47
2023-04-03T22:44:36.725Z,95581.66
2023-04-03T22:47:45.315Z,95585.13
2023-04-03T22:50:54.152Z,95582.50
2023-04-03T22:54:04.080Z,95579.41
2023-04-03T22:57:12.298Z,95578.56
2023-04-03T23:00:21.224Z,95579.41
2023-04-03T23:03:29.593Z,95576.22
2023-04-03T23:06:38.963Z,95585.00
2023-04-03T23:09:50.217Z,95584.41
2023-04-03T23:12:58.339Z,95584.75
2023-04-03T23:16:08.266Z,95583.81
2023-04-03T23:19:16.787Z,95574.53
2023-04-03T23:22:24.891Z,95575.94
2023-04-03T23:25:34.407Z,95578.78
2023-04-03T23:28:43.005Z,95572.38
2023-04-03T23:31:51.528Z,95573.78
2023-04-03T23:35:00.050Z,95571.16
2023-04-03T23:38:08.194Z,95569.16
2023-04-03T23:41:17.679Z,95571.78
2023-04-03T23:44:26.248Z,95572.84
2023-04-03T23:47:34.566Z,95575.34
2023-04-03T23:50:42.907Z,95567.59
2023-04-03T23:53:51.624Z,95566.44
2023-04-03T23:57:01.194Z,95565.59
